createdAt,value
2022-08-30T00:02:22.373Z,20.86
2022-08-30T00:04:54.172Z,20.92
2022-08-30T00:07:22.803Z,20.93
2022-08-30T00:09:50.261Z,20.80
2022-08-30T00:12:17.868Z,21.04
2022-08-30T00:14:45.461Z,21.01
2022-08-30T00:17:13.673Z,21.10
2022-08-30T00:19:41.116Z,21.01
2022-08-30T00:22:10.107Z,20.58
2022-08-30T00:24:38.281Z,20.49
2022-08-30T00:27:05.686Z,20.56
2022-08-30T00:29:32.921Z,20.48
2022-08-30T00:32:02.414Z,20.58
2022-08-30T00:34:29.632Z,20.36
2022-08-30T00:36:57.427Z,20.07
2022-08-30T00:39:25.144Z,19.83
2022-08-30T00:41:52.461Z,19.91
2022-08-30T00:44:19.830Z,19.81
2022-08-30T00:46:47.146Z,19.90
2022-08-30T00:49:15.105Z,20.05
2022-08-30T00:51:43.259Z,20.36
2022-08-30T00:54:12.364Z,20.32
2022-08-30T00:56:39.973Z,20.12
2022-08-30T00:59:09.111Z,20.17
2022-08-30T01:01:37.755Z,20.24
2022-08-30T01:04:08.913Z,20.22
2022-08-30T01:06:39.835Z,20.07
2022-08-30T01:09:08.705Z,19.68
2022-08-30T01:11:38.144Z,19.79
2022-08-30T01:14:08.863Z,19.75
2022-08-30T01:16:40.238Z,19.93
2022-08-30T01:19:28.803Z,19.92
2022-08-30T01:22:08.976Z,20.02
2022-08-30T01:24:36.839Z,20.03
2022-08-30T01:27:05.002Z,20.54
2022-08-30T01:29:32.684Z,20.19
2022-08-30T01:31:59.858Z,20.19
2022-08-30T01:34:27.134Z,20.10
2022-08-30T01:36:54.570Z,20.07
2022-08-30T01:39:22.170Z,19.89
2022-08-30T01:41:49.487Z,20.14
2022-08-30T01:44:17.098Z,20.09
2022-08-30T01:46:47.805Z,19.83
2022-08-30T01:49:23.074Z,19.48
2022-08-30T01:52:00.787Z,19.38
2022-08-30T01:54:36.907Z,19.29
2022-08-30T01:57:09.850Z,19.11
2022-08-30T01:59:39.548Z,19.07
2022-08-30T02:02:08.226Z,19.03
2022-08-30T02:04:36.863Z,19.36
2022-08-30T02:07:09.084Z,19.49
2022-08-30T02:09:37.662Z,19.60
2022-08-30T02:12:07.826Z,19.51
2022-08-30T02:14:37.141Z,19.37
2022-08-30T02:17:09.164Z,19.10
2022-08-30T02:19:36.714Z,19.05
2022-08-30T02:22:05.546Z,19.05
2022-08-30T02:24:33.607Z,19.27
2022-08-30T02:27:00.925Z,19.60
2022-08-30T02:29:28.292Z,19.59
2022-08-30T02:31:55.614Z,19.33
2022-08-30T02:34:23.159Z,19.16
2022-08-30T02:36:50.668Z,19.15
2022-08-30T02:39:18.206Z,18.84
2022-08-30T02:41:46.800Z,18.76
2022-08-30T02:44:15.709Z,18.79
2022-08-30T02:46:43.215Z,18.95
2022-08-30T02:49:32.763Z,19.02
2022-08-30T02:51:58.134Z,19.32
2022-08-30T02:54:25.994Z,19.19
2022-08-30T02:56:53.936Z,19.12
2022-08-30T02:59:21.198Z,19.28
2022-08-30T03:01:48.956Z,19.17
2022-08-30T03:04:16.498Z,19.27
2022-08-30T03:06:43.877Z,19.31
2022-08-30T03:09:11.239Z,19.06
2022-08-30T03:11:38.943Z,19.04
2022-08-30T03:14:06.360Z,18.89
2022-08-30T03:16:33.951Z,18.71
2022-08-30T03:19:01.340Z,18.69
2022-08-30T03:21:28.664Z,18.67
2022-08-30T03:23:56.541Z,18.73
2022-08-30T03:26:23.767Z,18.72
2022-08-30T03:28:50.984Z,18.80
2022-08-30T03:31:18.200Z,18.75
2022-08-30T03:33:45.627Z,18.61
2022-08-30T03:36:12.885Z,18.49
2022-08-30T03:38:40.470Z,18.89
2022-08-30T03:41:08.089Z,18.99
2022-08-30T03:43:36.472Z,18.99
2022-08-30T03:46:05.118Z,18.96
2022-08-30T03:48:32.492Z,18.52
2022-08-30T03:50:59.795Z,18.51
2022-08-30T03:53:27.406Z,18.32
2022-08-30T03:55:55.218Z,17.97
2022-08-30T03:58:25.156Z,17.91
2022-08-30T04:00:52.510Z,18.08
2022-08-30T04:03:25.712Z,17.83
2022-08-30T04:05:56.787Z,18.05
2022-08-30T04:08:25.592Z,17.90
2022-08-30T04:10:55.586Z,18.01
2022-08-30T04:13:24.661Z,18.22
2022-08-30T04:15:51.941Z,18.44
2022-08-30T04:18:19.296Z,18.27
2022-08-30T04:20:47.463Z,18.07
2022-08-30T04:23:15.047Z,18.15
2022-08-30T04:25:42.832Z,18.02
2022-08-30T04:28:11.185Z,17.92
2022-08-30T04:30:44.855Z,17.67
2022-08-30T04:33:15.226Z,17.54
2022-08-30T04:35:48.306Z,17.50
2022-08-30T04:38:17.749Z,17.76
2022-08-30T04:40:50.120Z,17.57
2022-08-30T04:43:17.683Z,17.45
2022-08-30T04:45:45.194Z,17.69
2022-08-30T04:48:12.438Z,17.83
2022-08-30T04:50:39.964Z,18.03
2022-08-30T04:53:14.979Z,18.20
2022-08-30T04:55:43.919Z,18.20
2022-08-30T04:58:12.183Z,18.13
2022-08-30T05:00:42.103Z,18.27
2022-08-30T05:03:09.537Z,18.39
2022-08-30T05:05:39.956Z,18.39
2022-08-30T05:08:14.534Z,18.44
2022-08-30T05:10:47.099Z,18.45
2022-08-30T05:13:18.501Z,18.36
2022-08-30T05:15:47.193Z,18.80
2022-08-30T05:18:15.822Z,19.52
2022-08-30T05:20:44.162Z,20.81
2022-08-30T05:23:12.014Z,21.95
2022-08-30T05:25:42.347Z,23.09
2022-08-30T05:28:09.768Z,23.89
2022-08-30T05:30:38.377Z,25.17
2022-08-30T05:33:05.843Z,26.17
2022-08-30T05:35:33.095Z,26.83
2022-08-30T05:38:00.847Z,27.46
2022-08-30T05:40:29.227Z,28.21
2022-08-30T05:42:56.582Z,28.69
2022-08-30T05:45:24.053Z,28.73
2022-08-30T05:47:51.308Z,29.47
2022-08-30T05:50:18.774Z,30.08
2022-08-30T05:52:48.497Z,30.46
2022-08-30T05:55:16.081Z,30.69
2022-08-30T05:57:43.475Z,30.34
2022-08-30T06:00:18.404Z,29.94
2022-08-30T06:02:46.112Z,29.76
2022-08-30T06:05:14.635Z,30.17
2022-08-30T06:07:43.539Z,30.59
2022-08-30T06:10:12.495Z,30.91
2022-08-30T06:12:40.473Z,30.77
2022-08-30T06:15:08.909Z,31.71
2022-08-30T06:17:36.491Z,32.61
2022-08-30T06:20:04.544Z,33.29
2022-08-30T06:22:32.122Z,33.84
2022-08-30T06:24:59.403Z,34.46
2022-08-30T06:27:26.735Z,34.51
2022-08-30T06:29:54.084Z,35.11
2022-08-30T06:32:21.486Z,36.01
2022-08-30T06:34:49.489Z,37.13
2022-08-30T06:37:29.146Z,37.52
2022-08-30T06:39:59.385Z,35.47
2022-08-30T06:42:32.260Z,36.96
2022-08-30T06:45:10.655Z,36.89
2022-08-30T06:47:40.559Z,37.96
2022-08-30T06:50:11.840Z,38.89
2022-08-30T06:52:47.737Z,39.19
2022-08-30T06:55:18.563Z,39.51
2022-08-30T06:57:47.184Z,40.43
2022-08-30T07:00:17.911Z,40.75
2022-08-30T07:02:45.403Z,40.83
2022-08-30T07:05:18.032Z,41.34
2022-08-30T07:07:46.117Z,41.86
2022-08-30T07:10:15.325Z,42.34
2022-08-30T07:12:48.781Z,42.36
2022-08-30T07:15:16.586Z,41.90
2022-08-30T07:18:02.474Z,42.08
2022-08-30T07:20:40.009Z,43.04
2022-08-30T07:23:10.318Z,44.09
2022-08-30T07:25:41.617Z,43.95
2022-08-30T07:28:11.874Z,44.41
2022-08-30T07:30:41.848Z,44.26
2022-08-30T07:33:09.885Z,42.63
2022-08-30T07:35:37.324Z,43.36
2022-08-30T07:38:10.253Z,42.89
2022-08-30T07:40:38.754Z,41.99
2022-08-30T07:43:06.427Z,42.71
2022-08-30T07:45:34.119Z,43.60
2022-08-30T07:48:03.334Z,44.37
2022-08-30T07:50:31.051Z,45.29
2022-08-30T07:52:58.803Z,45.94
2022-08-30T07:55:26.464Z,46.82
2022-08-30T07:57:53.717Z,46.02
2022-08-30T08:00:21.234Z,46.13
2022-08-30T08:02:48.575Z,46.02
2022-08-30T08:05:18.133Z,45.84
2022-08-30T08:07:46.954Z,46.15
2022-08-30T08:10:21.723Z,46.26
2022-08-30T08:12:49.655Z,46.22
2022-08-30T08:15:21.866Z,45.18
2022-08-30T08:17:49.337Z,46.68
2022-08-30T08:20:16.799Z,46.55
2022-08-30T08:22:44.043Z,47.51
2022-08-30T08:25:11.313Z,48.13
2022-08-30T08:27:38.865Z,48.66
2022-08-30T08:30:07.454Z,49.37
2022-08-30T08:32:35.121Z,50.01
2022-08-30T08:35:02.624Z,50.26
2022-08-30T08:37:30.091Z,51.12
2022-08-30T08:39:57.639Z,51.74
2022-08-30T08:43:01.393Z,52.00
2022-08-30T08:46:17.153Z,52.71
2022-08-30T08:49:00.898Z,52.79
2022-08-30T08:51:57.425Z,52.67
2022-08-30T08:54:51.597Z,53.92
2022-08-30T08:57:22.715Z,54.02
2022-08-30T08:59:54.392Z,52.55
2022-08-30T09:02:41.264Z,53.40
2022-08-30T09:05:15.587Z,53.88
2022-08-30T09:07:52.509Z,53.96
2022-08-30T09:10:40.363Z,53.78
2022-08-30T09:13:12.982Z,52.88
2022-08-30T09:15:41.099Z,52.01
2022-08-30T09:18:19.495Z,52.14
2022-08-30T09:20:51.627Z,53.38
2022-08-30T09:23:19.038Z,53.58
2022-08-30T09:25:59.409Z,54.55
2022-08-30T09:29:05.212Z,54.91
2022-08-30T09:31:52.940Z,51.25
2022-08-30T09:34:33.617Z,49.36
2022-08-30T09:37:01.081Z,45.15
2022-08-30T09:39:39.340Z,45.83
2022-08-30T09:42:26.037Z,45.26
2022-08-30T09:45:10.394Z,45.79
2022-08-30T09:47:44.403Z,45.21
2022-08-30T09:50:17.002Z,45.18
2022-08-30T09:53:23.434Z,43.82
2022-08-30T09:56:12.234Z,45.68
2022-08-30T09:59:34.305Z,45.77
2022-08-30T10:02:25.656Z,46.81
2022-08-30T10:05:33.664Z,45.14
2022-08-30T10:08:32.989Z,44.30
2022-08-30T10:11:22.114Z,43.38
2022-08-30T10:14:05.545Z,44.69
2022-08-30T10:17:04.710Z,45.10
2022-08-30T10:20:30.473Z,43.73
2022-08-30T10:23:11.475Z,46.02
2022-08-30T10:26:54.491Z,48.43
2022-08-30T10:29:40.637Z,48.90
2022-08-30T10:33:25.524Z,49.98
2022-08-30T10:37:07.923Z,47.32
2022-08-30T10:41:09.128Z,49.64
2022-08-30T10:44:52.158Z,49.98
2022-08-30T10:48:35.423Z,49.73
2022-08-30T10:52:17.916Z,49.34
2022-08-30T10:56:06.291Z,48.35
2022-08-30T10:59:48.915Z,47.82
2022-08-30T11:03:33.055Z,48.86
2022-08-30T11:07:15.787Z,49.66
2022-08-30T11:10:58.832Z,47.88
2022-08-30T11:14:41.449Z,47.89
2022-08-30T11:18:25.891Z,47.70
2022-08-30T11:22:08.665Z,48.62
2022-08-30T11:25:56.876Z,45.97
2022-08-30T11:29:40.686Z,44.55
2022-08-30T11:33:23.845Z,43.75
2022-08-30T11:35:53.679Z,45.40
2022-08-30T11:38:26.903Z,45.14
2022-08-30T11:42:09.414Z,44.15
2022-08-30T11:44:36.675Z,43.94
2022-08-30T11:48:17.216Z,45.06
2022-08-30T11:51:20.287Z,42.50
2022-08-30T11:55:02.542Z,42.63
2022-08-30T11:58:44.914Z,41.93
2022-08-30T12:01:46.898Z,41.79
2022-08-30T12:04:37.541Z,38.98
2022-08-30T12:07:09.354Z,38.44
2022-08-30T12:10:51.013Z,37.70
2022-08-30T12:13:42.784Z,37.69
2022-08-30T12:17:44.345Z,38.10
2022-08-30T12:21:28.177Z,39.73
2022-08-30T12:24:34.800Z,38.18
2022-08-30T12:28:18.370Z,37.88
2022-08-30T12:30:46.737Z,38.54
2022-08-30T12:34:34.335Z,40.26
2022-08-30T12:38:18.392Z,42.07
2022-08-30T12:40:58.454Z,40.03
2022-08-30T12:44:41.129Z,39.64
2022-08-30T12:48:24.005Z,39.25
2022-08-30T12:50:59.213Z,39.88
2022-08-30T12:53:42.161Z,40.45
2022-08-30T12:56:30.458Z,40.31
2022-08-30T12:59:05.006Z,40.55
2022-08-30T13:01:36.569Z,40.64
2022-08-30T13:04:27.702Z,40.54
2022-08-30T13:06:59.518Z,38.95
2022-08-30T13:09:43.939Z,37.46
2022-08-30T13:12:27.358Z,37.81
2022-08-30T13:15:21.272Z,38.57
2022-08-30T13:17:49.446Z,38.51
2022-08-30T13:20:16.738Z,39.22
2022-08-30T13:23:59.234Z,38.91
2022-08-30T13:27:44.377Z,38.77
2022-08-30T13:31:27.465Z,38.77
2022-08-30T13:35:10.163Z,39.04
2022-08-30T13:38:52.769Z,39.08
2022-08-30T13:42:35.251Z,38.97
2022-08-30T13:46:18.502Z,39.04
2022-08-30T13:48:46.686Z,38.67
2022-08-30T13:51:14.126Z,38.33
2022-08-30T13:54:56.664Z,38.82
2022-08-30T13:58:39.712Z,38.08
2022-08-30T14:02:24.206Z,36.22
2022-08-30T14:04:51.504Z,36.27
2022-08-30T14:07:20.223Z,36.50
2022-08-30T14:11:03.105Z,36.31
2022-08-30T14:13:31.201Z,36.16
2022-08-30T14:17:14.064Z,35.73
2022-08-30T14:19:41.279Z,35.15
2022-08-30T14:22:08.581Z,35.08
2022-08-30T14:24:36.068Z,34.15
2022-08-30T14:27:03.514Z,34.32
2022-08-30T14:29:31.602Z,34.62
2022-08-30T14:32:00.324Z,34.67
2022-08-30T14:34:27.931Z,34.66
2022-08-30T14:36:56.315Z,34.83
2022-08-30T14:39:24.187Z,34.63
2022-08-30T14:41:55.571Z,34.48
2022-08-30T14:44:25.442Z,34.39
2022-08-30T14:46:54.230Z,34.10
2022-08-30T14:49:22.931Z,33.39
2022-08-30T14:51:51.709Z,33.43
2022-08-30T14:54:26.086Z,33.65
2022-08-30T14:56:54.856Z,33.67
2022-08-30T14:59:24.065Z,33.89
2022-08-30T15:01:52.107Z,34.07
2022-08-30T15:04:21.536Z,33.50
2022-08-30T15:06:50.515Z,32.74
2022-08-30T15:09:23.779Z,33.51
2022-08-30T15:11:59.624Z,34.27
2022-08-30T15:14:29.214Z,35.00
2022-08-30T15:17:02.601Z,35.30
2022-08-30T15:19:32.341Z,35.66
2022-08-30T15:22:06.026Z,35.20
2022-08-30T15:24:33.798Z,34.53
2022-08-30T15:27:02.224Z,34.18
2022-08-30T15:29:31.795Z,34.74
2022-08-30T15:32:02.109Z,33.72
2022-08-30T15:34:32.078Z,33.11
2022-08-30T15:37:00.210Z,33.58
2022-08-30T15:39:27.940Z,33.66
2022-08-30T15:42:00.756Z,33.10
2022-08-30T15:44:31.372Z,32.77
2022-08-30T15:46:59.481Z,32.94
2022-08-30T15:49:26.715Z,33.21
2022-08-30T15:51:54.653Z,33.30
2022-08-30T15:54:24.087Z,33.70
2022-08-30T15:56:59.000Z,33.52
2022-08-30T15:59:29.921Z,33.38
2022-08-30T16:01:57.671Z,32.79
2022-08-30T16:04:25.645Z,32.84
2022-08-30T16:06:53.783Z,32.41
2022-08-30T16:09:22.249Z,32.27
2022-08-30T16:11:49.760Z,32.07
2022-08-30T16:14:17.677Z,31.85
2022-08-30T16:16:46.471Z,31.25
2022-08-30T16:19:14.391Z,31.01
2022-08-30T16:21:44.067Z,31.26
2022-08-30T16:24:13.861Z,31.26
2022-08-30T16:26:43.337Z,31.18
2022-08-30T16:29:13.342Z,31.19
2022-08-30T16:31:45.628Z,30.81
2022-08-30T16:34:20.111Z,30.91
2022-08-30T16:36:47.787Z,30.87
2022-08-30T16:39:16.586Z,30.66
2022-08-30T16:41:45.542Z,30.88
2022-08-30T16:44:15.958Z,30.84
2022-08-30T16:46:53.750Z,30.74
2022-08-30T16:49:25.440Z,30.58
2022-08-30T16:51:54.671Z,30.67
2022-08-30T16:54:22.853Z,30.89
2022-08-30T16:56:51.013Z,30.81
2022-08-30T16:59:18.931Z,30.61
2022-08-30T17:01:46.512Z,30.81
2022-08-30T17:04:18.501Z,30.52
2022-08-30T17:06:49.887Z,30.52
2022-08-30T17:09:19.222Z,30.30
2022-08-30T17:11:47.548Z,30.29
2022-08-30T17:14:16.343Z,30.66
2022-08-30T17:16:50.463Z,30.59
2022-08-30T17:19:18.559Z,30.02
2022-08-30T17:21:54.545Z,30.03
2022-08-30T17:24:21.792Z,29.58
2022-08-30T17:26:49.255Z,29.89
2022-08-30T17:29:17.603Z,29.97
2022-08-30T17:31:51.168Z,29.79
2022-08-30T17:34:24.175Z,29.82
2022-08-30T17:36:55.492Z,29.88
2022-08-30T17:39:24.838Z,29.70
2022-08-30T17:41:52.901Z,29.52
2022-08-30T17:44:26.881Z,29.30
2022-08-30T17:46:56.417Z,29.37
2022-08-30T17:49:24.994Z,29.31
2022-08-30T17:51:56.718Z,29.21
2022-08-30T17:54:28.219Z,29.23
2022-08-30T17:56:57.650Z,29.35
2022-08-30T17:59:27.260Z,29.23
2022-08-30T18:01:59.172Z,29.23
2022-08-30T18:04:26.641Z,28.98
2022-08-30T18:06:55.447Z,28.79
2022-08-30T18:09:24.039Z,28.72
2022-08-30T18:11:52.178Z,28.56
2022-08-30T18:14:24.534Z,28.38
2022-08-30T18:16:54.469Z,28.32
2022-08-30T18:19:27.921Z,28.44
2022-08-30T18:21:56.565Z,28.11
2022-08-30T18:24:25.044Z,28.32
2022-08-30T18:26:54.782Z,28.31
2022-08-30T18:29:29.157Z,28.23
2022-08-30T18:32:02.508Z,27.99
2022-08-30T18:34:30.705Z,28.03
2022-08-30T18:36:57.987Z,27.94
2022-08-30T18:39:26.176Z,27.90
2022-08-30T18:41:54.462Z,28.00
2022-08-30T18:44:43.867Z,27.69
2022-08-30T18:47:11.858Z,27.74
2022-08-30T18:49:39.197Z,27.60
2022-08-30T18:52:10.364Z,27.61
2022-08-30T18:54:51.787Z,27.78
2022-08-30T18:57:22.006Z,27.52
2022-08-30T18:59:50.351Z,27.38
2022-08-30T19:02:17.796Z,27.38
2022-08-30T19:04:45.811Z,27.39
2022-08-30T19:07:16.607Z,27.27
2022-08-30T19:09:47.745Z,26.94
2022-08-30T19:12:15.289Z,27.12
2022-08-30T19:14:46.450Z,27.40
2022-08-30T19:17:14.350Z,27.60
2022-08-30T19:19:48.772Z,27.70
2022-08-30T19:22:26.624Z,27.38
2022-08-30T19:24:54.680Z,27.43
2022-08-30T19:27:37.639Z,27.41
2022-08-30T19:30:20.567Z,27.20
2022-08-30T19:32:51.549Z,27.14
2022-08-30T19:35:21.250Z,26.99
2022-08-30T19:37:48.516Z,26.93
2022-08-30T19:40:19.182Z,27.17
2022-08-30T19:42:47.723Z,27.06
2022-08-30T19:45:18.546Z,26.89
2022-08-30T19:51:00.314Z,26.71
2022-08-30T19:53:27.911Z,26.77
2022-08-30T19:55:55.095Z,26.68
2022-08-30T19:58:22.282Z,26.64
2022-08-30T20:00:53.022Z,26.59
2022-08-30T20:03:28.681Z,26.50
2022-08-30T20:05:57.087Z,26.68
2022-08-30T20:08:24.254Z,26.76
2022-08-30T20:10:52.324Z,26.87
2022-08-30T20:13:23.586Z,26.68
2022-08-30T20:15:59.065Z,26.81
2022-08-30T20:18:26.985Z,26.27
2022-08-30T20:20:55.286Z,26.66
2022-08-30T20:23:26.325Z,26.55
2022-08-30T20:25:55.458Z,26.34
2022-08-30T20:28:25.713Z,26.31
2022-08-30T20:30:55.874Z,26.33
2022-08-30T20:33:25.028Z,26.08
2022-08-30T20:35:52.567Z,26.02
2022-08-30T20:38:21.711Z,25.85
2022-08-30T20:41:01.015Z,25.70
2022-08-30T20:43:31.451Z,25.86
2022-08-30T20:45:58.774Z,25.67
2022-08-30T20:48:28.636Z,25.70
2022-08-30T20:51:04.689Z,25.47
2022-08-30T20:53:32.168Z,25.44
2022-08-30T20:55:59.429Z,25.70
2022-08-30T20:58:26.848Z,25.82
2022-08-30T21:00:55.576Z,25.78
2022-08-30T21:03:26.439Z,25.73
2022-08-30T21:05:57.693Z,25.68
2022-08-30T21:08:26.253Z,25.58
2022-08-30T21:10:54.536Z,25.72
2022-08-30T21:13:22.395Z,25.46
2022-08-30T21:16:00.363Z,25.43
2022-08-30T21:18:33.117Z,25.35
2022-08-30T21:21:09.375Z,25.26
2022-08-30T21:23:37.137Z,25.21
2022-08-30T21:26:10.305Z,25.12
2022-08-30T21:28:38.709Z,25.13
2022-08-30T21:31:19.169Z,25.30
2022-08-30T21:33:50.050Z,25.32
2022-08-30T21:36:37.054Z,25.28
2022-08-30T21:39:06.823Z,25.31
2022-08-30T21:41:37.388Z,25.02
2022-08-30T21:44:18.807Z,24.93
2022-08-30T21:46:48.381Z,25.13
2022-08-30T21:49:21.448Z,25.17
2022-08-30T21:51:52.383Z,25.04
2022-08-30T21:54:21.581Z,25.01
2022-08-30T21:56:52.600Z,24.82
2022-08-30T21:59:21.644Z,24.88
2022-08-30T22:01:49.978Z,24.95
2022-08-30T22:04:17.854Z,25.01
2022-08-30T22:06:50.202Z,25.07
2022-08-30T22:09:25.412Z,25.01
2022-08-30T22:11:54.797Z,25.09
2022-08-30T22:14:23.138Z,25.41
2022-08-30T22:16:51.640Z,25.24
2022-08-30T22:19:25.013Z,25.26
2022-08-30T22:21:53.899Z,25.32
2022-08-30T22:24:32.276Z,25.18
2022-08-30T22:27:05.104Z,25.25
2022-08-30T22:29:33.467Z,25.26
2022-08-30T22:32:01.509Z,25.32
2022-08-30T22:34:29.391Z,25.57
2022-08-30T22:36:56.615Z,25.53
2022-08-30T22:39:25.437Z,25.42
2022-08-30T22:41:52.745Z,25.33
2022-08-30T22:44:19.971Z,25.37
2022-08-30T22:46:47.400Z,25.40
2022-08-30T22:49:14.750Z,25.45
2022-08-30T22:51:42.709Z,25.12
2022-08-30T22:54:11.784Z,25.03
2022-08-30T22:56:40.288Z,25.27
2022-08-30T22:59:07.882Z,25.17
2022-08-30T23:01:40.645Z,25.06
2022-08-30T23:04:09.448Z,25.08
2022-08-30T23:06:37.135Z,25.21
2022-08-30T23:09:06.347Z,25.27
2022-08-30T23:11:34.897Z,25.35
2022-08-30T23:14:04.695Z,25.40
2022-08-30T23:16:33.752Z,25.49
2022-08-30T23:19:01.247Z,25.64
2022-08-30T23:21:31.218Z,25.62
2022-08-30T23:24:18.218Z,25.59
2022-08-30T23:27:06.181Z,25.44
2022-08-30T23:29:53.856Z,25.49
2022-08-30T23:32:40.750Z,25.49
2022-08-30T23:35:32.049Z,25.37
2022-08-30T23:38:23.810Z,25.10
2022-08-30T23:41:10.769Z,25.33
2022-08-30T23:43:57.090Z,25.07
2022-08-30T23:46:43.033Z,25.59
2022-08-30T23:49:29.135Z,25.24
2022-08-30T23:52:15.035Z,25.15
2022-08-30T23:55:01.637Z,25.23
2022-08-30T23:57:47.634Z,25.38
